Terminal Aerodrome Forecast
Issued by NWS

Home | Current Version | Previous Version | Text Only | Print | Product List | Glossary On
Versions: 1 2 3 4 5 6 7 8 9 10 11 12 13 14
000
FTUS45 KTFX 041131
TAFCTB
TAF
KCTB 041131Z 0412/0512 09008KT P6SM SKC
     FM041800 20008KT P6SM SCT120
     FM050300 28008KT P6SM BKN120=

USA.gov is the U.S. government's official web portal to all federal, state and local government web resources and services.